URRP 090930Z 04002MPS 360V110 CAVOK M05/M10 Q1038 R05/CLRD70 NOSIG RMK QFE774/1032
QNH:(hPa/inHg/mmHg)1038 / 30.65 / 779
QFE:(hPa/inHg/mmHg)1028 / 30.34 / 771
Temperature-5
Dew Point-10
Visibility> 10000
WeatherCAVOK
Cloud Cover
Transition Altitude3500 ft.
Transition LevelFL50
SQUAWK